createdAt,value
2018-09-09T00:02:10.626Z,60.90
2018-09-09T00:04:39.799Z,61.50
2018-09-09T00:07:09.634Z,61.00
2018-09-09T00:09:44.208Z,60.90
2018-09-09T00:12:14.362Z,61.10
2018-09-09T00:14:42.947Z,61.50
2018-09-09T00:17:11.732Z,61.80
2018-09-09T00:19:40.731Z,61.70
2018-09-09T00:22:09.724Z,61.10
2018-09-09T00:24:38.308Z,60.90
2018-09-09T00:27:06.835Z,60.90
2018-09-09T00:29:35.500Z,61.40
2018-09-09T00:32:04.544Z,61.40
2018-09-09T00:34:33.246Z,61.30
2018-09-09T00:37:02.144Z,61.10
2018-09-09T00:39:31.091Z,61.10
2018-09-09T00:41:59.849Z,61.40
2018-09-09T00:44:28.726Z,62.20
2018-09-09T00:46:57.202Z,61.60
2018-09-09T00:49:30.876Z,61.20
2018-09-09T00:52:04.850Z,61.20
2018-09-09T00:54:33.276Z,61.20
2018-09-09T00:57:01.713Z,61.20
2018-09-09T00:59:30.116Z,61.90
2018-09-09T01:01:58.722Z,62.10
2018-09-09T01:04:27.095Z,62.00
2018-09-09T01:06:55.512Z,61.90
2018-09-09T01:09:29.845Z,62.10
2018-09-09T01:11:58.325Z,62.50
2018-09-09T01:14:27.243Z,62.60
2018-09-09T01:16:55.805Z,63.00
2018-09-09T01:19:24.441Z,62.80
2018-09-09T01:21:53.444Z,62.50
2018-09-09T01:24:22.103Z,63.00
2018-09-09T01:26:50.689Z,63.30
2018-09-09T01:29:19.170Z,63.40
2018-09-09T01:31:47.749Z,63.50
2018-09-09T01:34:16.399Z,63.30
2018-09-09T01:36:45.048Z,63.40
2018-09-09T01:39:13.705Z,63.50
2018-09-09T01:41:42.188Z,63.40
2018-09-09T01:44:10.589Z,63.00
2018-09-09T01:46:38.990Z,63.00
2018-09-09T01:49:07.848Z,62.70
2018-09-09T01:51:36.427Z,62.40
2018-09-09T01:54:04.965Z,62.50
2018-09-09T01:56:33.448Z,62.80
2018-09-09T01:59:02.079Z,62.90
2018-09-09T02:01:31.693Z,62.70
2018-09-09T02:04:00.063Z,62.70
2018-09-09T02:06:28.543Z,62.60
2018-09-09T02:08:57.090Z,62.90
2018-09-09T02:11:25.681Z,62.80
2018-09-09T02:13:54.184Z,63.70
2018-09-09T02:16:22.745Z,63.30
2018-09-09T02:18:51.314Z,63.30
2018-09-09T02:21:19.961Z,63.60
2018-09-09T02:23:48.413Z,63.70
2018-09-09T02:26:17.335Z,63.70
2018-09-09T02:28:45.771Z,63.40
2018-09-09T02:31:14.423Z,63.40
2018-09-09T02:33:42.962Z,63.40
2018-09-09T02:36:11.367Z,63.30
2018-09-09T02:38:39.752Z,63.00
2018-09-09T02:41:08.265Z,63.00
2018-09-09T02:43:36.753Z,62.90
2018-09-09T02:46:05.229Z,63.50
2018-09-09T02:48:33.827Z,63.70
2018-09-09T02:51:02.299Z,63.00
2018-09-09T02:53:30.774Z,63.70
2018-09-09T02:55:59.251Z,64.00
2018-09-09T02:58:27.609Z,64.20
2018-09-09T03:00:56.150Z,63.70
2018-09-09T03:03:24.603Z,64.00
2018-09-09T03:05:53.180Z,64.00
2018-09-09T03:08:21.701Z,63.50
2018-09-09T03:10:54.345Z,63.70
2018-09-09T03:13:23.038Z,64.00
2018-09-09T03:15:51.492Z,64.00
2018-09-09T03:18:20.184Z,63.80
2018-09-09T03:20:48.748Z,64.40
2018-09-09T03:23:17.450Z,64.40
2018-09-09T03:25:46.047Z,64.40
2018-09-09T03:28:14.467Z,63.50
2018-09-09T03:30:42.934Z,63.10
2018-09-09T03:33:11.372Z,64.20
2018-09-09T03:35:40.054Z,64.50
2018-09-09T03:38:08.452Z,64.50
2018-09-09T03:40:37.162Z,64.50
2018-09-09T03:43:05.728Z,64.50
2018-09-09T03:45:34.286Z,64.50
2018-09-09T03:48:02.748Z,64.30
2018-09-09T03:50:31.493Z,64.20
2018-09-09T03:53:00.055Z,64.30
2018-09-09T03:55:28.518Z,64.30
2018-09-09T03:57:57.432Z,64.20
2018-09-09T04:00:25.923Z,63.90
2018-09-09T04:02:54.725Z,63.50
2018-09-09T04:05:23.465Z,63.40
2018-09-09T04:07:52.353Z,63.10
2018-09-09T04:10:20.833Z,63.20
2018-09-09T04:12:49.581Z,63.10
2018-09-09T04:15:18.128Z,63.00
2018-09-09T04:17:46.880Z,63.30
2018-09-09T04:20:15.559Z,63.70
2018-09-09T04:22:44.077Z,64.00
2018-09-09T04:25:12.659Z,64.00
2018-09-09T04:27:41.322Z,64.90
2018-09-09T04:30:09.725Z,64.30
2018-09-09T04:32:38.278Z,63.90
2018-09-09T04:35:06.691Z,63.90
2018-09-09T04:37:35.252Z,64.60
2018-09-09T04:40:03.942Z,64.30
2018-09-09T04:42:32.563Z,64.40
2018-09-09T04:45:01.281Z,64.40
2018-09-09T04:47:30.658Z,64.40
2018-09-09T04:49:59.416Z,64.60
2018-09-09T04:52:28.053Z,65.50
2018-09-09T04:54:56.695Z,64.90
2018-09-09T04:57:25.554Z,65.00
2018-09-09T04:59:54.126Z,64.90
2018-09-09T05:02:23.023Z,64.90
2018-09-09T05:04:52.232Z,64.90
2018-09-09T05:07:21.119Z,65.00
2018-09-09T05:09:50.115Z,65.00
2018-09-09T05:12:18.762Z,65.40
2018-09-09T05:14:47.800Z,65.60
2018-09-09T05:17:16.463Z,65.60
2018-09-09T05:19:45.172Z,65.70
2018-09-09T05:22:14.094Z,65.80
2018-09-09T05:24:42.907Z,65.30
2018-09-09T05:27:11.611Z,64.50
2018-09-09T05:29:40.318Z,64.20
2018-09-09T05:32:08.950Z,64.90
2018-09-09T05:34:37.752Z,64.70
2018-09-09T05:37:06.431Z,64.50
2018-09-09T05:39:34.840Z,65.10
2018-09-09T05:42:03.313Z,64.50
2018-09-09T05:44:32.548Z,64.40
2018-09-09T05:47:01.065Z,64.60
2018-09-09T05:49:29.544Z,64.10
2018-09-09T05:51:58.286Z,64.40
2018-09-09T05:54:27.219Z,65.20
2018-09-09T05:56:55.627Z,64.70
2018-09-09T05:59:24.132Z,64.00
2018-09-09T06:01:53.231Z,64.10
2018-09-09T06:04:21.753Z,65.00
2018-09-09T06:06:50.118Z,65.40
2018-09-09T06:09:18.656Z,66.30
2018-09-09T06:11:47.214Z,65.80
2018-09-09T06:14:15.907Z,64.40
2018-09-09T06:16:44.413Z,64.80
2018-09-09T06:19:13.085Z,63.70
2018-09-09T06:21:41.498Z,63.80
2018-09-09T06:24:10.018Z,63.90
2018-09-09T06:26:38.660Z,64.10
2018-09-09T06:29:07.270Z,64.20
2018-09-09T06:31:35.641Z,63.40
2018-09-09T06:34:04.079Z,62.50
2018-09-09T06:36:32.682Z,62.10
2018-09-09T06:39:01.167Z,62.00
2018-09-09T06:41:29.610Z,62.00
2018-09-09T06:43:58.091Z,62.40
2018-09-09T06:46:26.589Z,62.00
2018-09-09T06:48:54.984Z,62.00
2018-09-09T06:51:23.463Z,61.50
2018-09-09T06:53:52.055Z,61.20
2018-09-09T06:56:20.581Z,61.70
2018-09-09T06:58:49.280Z,62.00
2018-09-09T07:01:17.758Z,61.80
2018-09-09T07:03:46.623Z,61.80
2018-09-09T07:06:15.519Z,61.70
2018-09-09T07:08:44.428Z,61.70
2018-09-09T07:11:12.925Z,61.40
2018-09-09T07:13:41.265Z,61.30
2018-09-09T07:16:09.688Z,61.30
2018-09-09T07:18:38.545Z,61.00
2018-09-09T07:21:07.798Z,60.00
2018-09-09T07:23:36.647Z,60.50
2018-09-09T07:26:07.087Z,60.00
2018-09-09T07:28:36.166Z,59.60
2018-09-09T07:31:04.799Z,59.50
2018-09-09T07:33:33.523Z,59.00
2018-09-09T07:36:01.911Z,59.10
2018-09-09T07:38:30.390Z,58.70
2018-09-09T07:40:58.884Z,59.20
2018-09-09T07:43:27.728Z,58.70
2018-09-09T07:45:56.303Z,58.30
2018-09-09T07:48:24.971Z,58.30
2018-09-09T07:50:53.432Z,57.70
2018-09-09T07:53:23.003Z,58.30
2018-09-09T07:55:52.808Z,57.20
2018-09-09T07:58:22.550Z,57.50
2018-09-09T08:00:52.349Z,57.60
2018-09-09T08:03:22.574Z,57.40
2018-09-09T08:05:52.268Z,57.20
2018-09-09T08:08:21.977Z,56.90
2018-09-09T08:10:51.922Z,57.20
2018-09-09T08:13:22.159Z,57.20
2018-09-09T08:15:52.334Z,57.60
2018-09-09T08:18:22.317Z,57.50
2018-09-09T08:20:52.949Z,57.00
2018-09-09T08:23:23.203Z,56.40
2018-09-09T08:25:53.947Z,56.40
2018-09-09T08:28:23.633Z,56.70
2018-09-09T08:30:53.950Z,56.80
2018-09-09T08:33:23.892Z,57.10
2018-09-09T08:35:54.095Z,56.50
2018-09-09T08:38:23.888Z,56.60
2018-09-09T08:40:54.587Z,56.20
2018-09-09T08:43:24.935Z,56.10
2018-09-09T08:45:54.989Z,56.20
2018-09-09T08:48:25.119Z,55.90
2018-09-09T08:50:55.576Z,55.50
2018-09-09T08:53:26.450Z,55.60
2018-09-09T08:55:57.110Z,55.10
2018-09-09T08:58:27.883Z,54.50
2018-09-09T09:00:57.337Z,55.00
2018-09-09T09:03:27.609Z,55.50
2018-09-09T09:05:57.542Z,55.70
2018-09-09T09:08:27.325Z,55.10
2018-09-09T09:10:58.076Z,54.90
2018-09-09T09:13:28.475Z,54.20
2018-09-09T09:15:58.670Z,54.30
2018-09-09T09:18:28.775Z,53.80
2018-09-09T09:20:58.362Z,54.20
2018-09-09T09:23:28.443Z,54.70
2018-09-09T09:25:58.143Z,55.20
2018-09-09T09:28:28.303Z,54.80
2018-09-09T09:30:58.293Z,54.30
2018-09-09T09:33:27.577Z,54.60
2018-09-09T09:35:57.242Z,54.30
2018-09-09T09:38:27.107Z,53.80
2018-09-09T09:40:56.210Z,54.00
2018-09-09T09:43:24.996Z,53.70
2018-09-09T09:45:54.095Z,53.50
2018-09-09T09:48:23.031Z,54.20
2018-09-09T09:50:52.886Z,53.80
2018-09-09T09:53:21.862Z,53.50
2018-09-09T09:55:51.323Z,53.70
2018-09-09T09:58:20.463Z,53.80
2018-09-09T10:00:54.576Z,53.70
2018-09-09T10:03:25.076Z,52.40
2018-09-09T10:05:54.002Z,51.90
2018-09-09T10:08:23.854Z,51.80
2018-09-09T10:10:52.657Z,52.20
2018-09-09T10:13:21.777Z,52.80
2018-09-09T10:15:50.686Z,52.20
2018-09-09T10:18:19.451Z,52.70
2018-09-09T10:20:48.311Z,52.70
2018-09-09T10:23:17.534Z,53.20
2018-09-09T10:25:46.233Z,52.90
2018-09-09T10:28:14.798Z,52.70
2018-09-09T10:30:43.360Z,53.60
2018-09-09T10:33:13.047Z,53.80
2018-09-09T10:35:41.425Z,53.20
2018-09-09T10:38:10.367Z,53.00
2018-09-09T10:40:39.015Z,52.10
2018-09-09T10:43:07.535Z,51.80
2018-09-09T10:45:36.173Z,51.50
2018-09-09T10:48:04.699Z,51.50
2018-09-09T10:50:33.061Z,50.70
2018-09-09T10:53:02.139Z,51.00
2018-09-09T10:55:30.824Z,50.60
2018-09-09T10:57:59.371Z,50.40
2018-09-09T11:00:27.955Z,49.40
2018-09-09T11:02:56.638Z,49.10
2018-09-09T11:05:25.010Z,49.20
2018-09-09T11:07:53.651Z,49.60
2018-09-09T11:10:22.892Z,50.10
2018-09-09T11:12:51.792Z,50.60
2018-09-09T11:15:20.923Z,48.90
2018-09-09T11:17:49.870Z,47.90
2018-09-09T11:20:19.163Z,47.50
2018-09-09T11:22:48.715Z,47.50
2018-09-09T11:25:17.653Z,47.70
2018-09-09T11:27:46.749Z,47.80
2018-09-09T11:30:15.714Z,48.60
2018-09-09T11:32:44.823Z,48.50
2018-09-09T11:35:14.193Z,48.50
2018-09-09T11:37:43.532Z,48.80
2018-09-09T11:40:13.072Z,48.80
2018-09-09T11:42:42.046Z,47.90
2018-09-09T11:45:11.247Z,48.50
2018-09-09T11:47:40.037Z,46.00
2018-09-09T11:50:09.474Z,46.20
2018-09-09T11:52:38.247Z,45.10
2018-09-09T11:55:07.032Z,45.30
2018-09-09T11:57:36.069Z,46.30
2018-09-09T12:00:04.766Z,45.80
2018-09-09T12:02:33.685Z,46.30
2018-09-09T12:05:02.420Z,46.30
2018-09-09T12:07:30.838Z,46.20
2018-09-09T12:09:59.787Z,46.40
2018-09-09T12:12:28.632Z,44.90
2018-09-09T12:14:58.175Z,44.90
2018-09-09T12:17:26.664Z,44.00
2018-09-09T12:19:55.537Z,43.90
2018-09-09T12:22:23.982Z,43.60
2018-09-09T12:24:52.583Z,43.80
2018-09-09T12:27:21.160Z,42.20
2018-09-09T12:29:49.627Z,42.60
2018-09-09T12:32:18.059Z,42.60
2018-09-09T12:34:46.687Z,40.90
2018-09-09T12:37:15.846Z,41.50
2018-09-09T12:39:44.215Z,42.30
2018-09-09T12:42:12.995Z,42.60
2018-09-09T12:44:46.768Z,41.70
2018-09-09T12:47:21.031Z,39.70
2018-09-09T12:49:49.604Z,40.00
2018-09-09T12:52:18.920Z,38.80
2018-09-09T12:54:48.058Z,38.60
2018-09-09T12:57:16.742Z,38.70
2018-09-09T12:59:45.929Z,39.10
2018-09-09T13:02:14.620Z,39.10
2018-09-09T13:04:43.368Z,38.90
2018-09-09T13:07:12.239Z,38.10
2018-09-09T13:09:40.940Z,38.20
2018-09-09T13:12:09.938Z,37.00
2018-09-09T13:14:38.553Z,37.70
2018-09-09T13:17:07.056Z,37.10
2018-09-09T13:19:35.770Z,37.50
2018-09-09T13:22:04.292Z,36.40
2018-09-09T13:24:32.817Z,35.60
2018-09-09T13:27:01.678Z,36.30
2018-09-09T13:29:30.265Z,35.90
2018-09-09T13:31:58.721Z,36.50
2018-09-09T13:34:27.509Z,37.70
2018-09-09T13:36:56.225Z,38.20
2018-09-09T13:39:24.807Z,38.80
2018-09-09T13:41:54.006Z,39.40
2018-09-09T13:44:22.595Z,39.10
2018-09-09T13:46:52.075Z,39.50
2018-09-09T13:49:20.603Z,39.80
2018-09-09T13:51:49.084Z,38.90
2018-09-09T13:54:17.543Z,38.40
2018-09-09T13:56:45.963Z,38.70
2018-09-09T13:59:14.466Z,39.10
2018-09-09T14:01:42.793Z,38.40
2018-09-09T14:04:11.738Z,37.40
2018-09-09T14:06:40.114Z,36.60
2018-09-09T14:09:09.560Z,37.10
2018-09-09T14:11:38.012Z,36.90
2018-09-09T14:14:06.725Z,37.00
2018-09-09T14:16:35.176Z,36.80
2018-09-09T14:19:03.771Z,36.80
2018-09-09T14:21:32.247Z,36.10
2018-09-09T14:24:00.955Z,35.90
2018-09-09T14:26:29.435Z,36.30
2018-09-09T14:28:57.825Z,36.00
2018-09-09T14:31:26.252Z,36.80
2018-09-09T14:33:54.640Z,36.20
2018-09-09T14:36:22.983Z,36.20
2018-09-09T14:38:51.533Z,36.30
2018-09-09T14:41:20.163Z,36.70
2018-09-09T14:43:49.143Z,37.10
2018-09-09T14:46:18.741Z,36.30
2018-09-09T14:48:47.634Z,36.40
2018-09-09T14:51:16.544Z,36.50
2018-09-09T14:53:45.049Z,37.00
2018-09-09T14:56:13.801Z,37.60
2018-09-09T14:58:42.831Z,37.70
2018-09-09T15:01:12.436Z,38.30
2018-09-09T15:03:41.064Z,39.00
2018-09-09T15:06:09.987Z,39.20
2018-09-09T15:08:39.086Z,39.80
2018-09-09T15:11:08.098Z,40.20
2018-09-09T15:14:51.558Z,41.00
2018-09-09T15:17:20.231Z,41.20
2018-09-09T15:19:49.365Z,41.60
2018-09-09T15:22:17.997Z,42.10
2018-09-09T15:24:46.713Z,42.20
2018-09-09T15:27:16.029Z,42.50
2018-09-09T15:29:45.134Z,42.60
2018-09-09T15:32:15.601Z,42.80
2018-09-09T15:34:44.810Z,42.10
2018-09-09T15:37:14.272Z,41.70
2018-09-09T15:39:43.184Z,41.60
2018-09-09T15:42:11.983Z,41.60
2018-09-09T15:44:40.493Z,41.30
2018-09-09T15:47:09.330Z,41.10
2018-09-09T15:49:37.780Z,40.20
2018-09-09T15:52:06.923Z,38.70
2018-09-09T15:54:36.554Z,38.10
2018-09-09T15:57:06.085Z,37.40
2018-09-09T15:59:34.980Z,37.50
2018-09-09T16:02:03.925Z,38.10
2018-09-09T16:04:32.699Z,38.50
2018-09-09T16:07:02.368Z,38.90
2018-09-09T16:09:31.739Z,39.10
2018-09-09T16:12:01.096Z,39.50
2018-09-09T16:14:29.914Z,39.90
2018-09-09T16:16:58.890Z,40.10
2018-09-09T16:19:28.195Z,40.00
2018-09-09T16:21:56.952Z,40.10
2018-09-09T16:24:25.836Z,40.30
2018-09-09T16:26:54.462Z,41.10
2018-09-09T16:29:22.960Z,41.00
2018-09-09T16:31:51.666Z,40.80
2018-09-09T16:34:21.281Z,41.20
2018-09-09T16:36:49.986Z,41.00
2018-09-09T16:39:18.656Z,41.20
2018-09-09T16:41:47.679Z,41.20
2018-09-09T16:44:17.150Z,41.40
2018-09-09T16:46:46.371Z,41.90
2018-09-09T16:49:15.570Z,42.00
2018-09-09T16:51:44.876Z,42.60
2018-09-09T16:54:13.553Z,42.70
2018-09-09T16:56:42.931Z,42.70
2018-09-09T16:59:11.757Z,42.50
2018-09-09T17:01:41.294Z,43.00
2018-09-09T17:04:10.298Z,43.20
2018-09-09T17:06:39.232Z,44.20
2018-09-09T17:09:10.465Z,43.30
2018-09-09T17:11:39.603Z,43.60
2018-09-09T17:14:08.808Z,44.20
2018-09-09T17:16:37.818Z,45.20
2018-09-09T17:19:07.212Z,43.00
2018-09-09T17:21:36.685Z,43.20
2018-09-09T17:24:05.840Z,43.80
2018-09-09T17:26:35.067Z,43.80
2018-09-09T17:29:04.402Z,43.40
2018-09-09T17:31:34.259Z,43.60
2018-09-09T17:34:03.085Z,43.60
2018-09-09T17:36:31.786Z,45.10
2018-09-09T17:39:00.526Z,45.40
2018-09-09T17:41:29.231Z,44.20
2018-09-09T17:43:57.966Z,44.80
2018-09-09T17:46:26.646Z,45.20
2018-09-09T17:48:55.399Z,45.70
2018-09-09T17:51:24.193Z,45.00
2018-09-09T17:53:53.863Z,46.00
2018-09-09T17:56:23.067Z,46.00
2018-09-09T17:58:52.738Z,45.00
2018-09-09T18:01:22.776Z,45.70
2018-09-09T18:03:51.984Z,45.90
2018-09-09T18:06:20.687Z,46.00
2018-09-09T18:08:49.627Z,45.70
2018-09-09T18:11:18.384Z,46.00
2018-09-09T18:13:47.059Z,46.30
2018-09-09T18:16:15.651Z,47.20
2018-09-09T18:18:44.671Z,47.10
2018-09-09T18:21:13.449Z,47.60
2018-09-09T18:23:42.424Z,48.10
2018-09-09T18:26:11.140Z,48.30
2018-09-09T18:28:39.843Z,48.40
2018-09-09T18:31:08.349Z,48.80
2018-09-09T18:33:36.927Z,49.30
2018-09-09T18:36:05.436Z,49.50
2018-09-09T18:38:34.264Z,49.70
2018-09-09T18:41:03.530Z,49.90
2018-09-09T18:43:32.195Z,49.90
2018-09-09T18:46:01.325Z,49.90
2018-09-09T18:48:31.296Z,49.90
2018-09-09T18:50:59.887Z,50.10
2018-09-09T18:53:28.747Z,50.60
2018-09-09T18:55:57.233Z,50.90
2018-09-09T18:58:25.749Z,50.90
2018-09-09T19:00:54.357Z,50.90
2018-09-09T19:03:22.974Z,51.30
2018-09-09T19:05:51.654Z,51.40
2018-09-09T19:08:20.048Z,51.50
2018-09-09T19:10:48.504Z,51.40
2018-09-09T19:13:17.039Z,51.30
2018-09-09T19:15:45.669Z,51.50
2018-09-09T19:18:14.293Z,51.90
2018-09-09T19:20:42.997Z,52.40
2018-09-09T19:23:11.551Z,52.70
2018-09-09T19:25:40.885Z,52.80
2018-09-09T19:28:09.780Z,52.70
2018-09-09T19:30:38.493Z,52.90
2018-09-09T19:33:07.480Z,52.90
2018-09-09T19:35:38.937Z,53.00
2018-09-09T19:38:08.431Z,52.70
2018-09-09T19:40:37.254Z,52.80
2018-09-09T19:43:05.833Z,52.40
2018-09-09T19:45:34.791Z,52.40
2018-09-09T19:48:03.299Z,52.50
2018-09-09T19:50:33.768Z,52.70
2018-09-09T19:53:05.065Z,53.20
2018-09-09T19:55:33.864Z,53.50
2018-09-09T19:58:02.481Z,53.50
2018-09-09T20:00:32.695Z,53.50
2018-09-09T20:03:01.196Z,53.50
2018-09-09T20:05:29.822Z,53.50
2018-09-09T20:07:58.640Z,53.60
2018-09-09T20:10:29.099Z,53.60
2018-09-09T20:12:57.721Z,54.50
2018-09-09T20:15:26.810Z,54.10
2018-09-09T20:17:55.233Z,54.50
2018-09-09T20:20:24.194Z,54.80
2018-09-09T20:22:52.778Z,55.00
2018-09-09T20:25:21.540Z,55.00
2018-09-09T20:27:50.061Z,55.10
2018-09-09T20:30:18.442Z,55.30
2018-09-09T20:32:47.279Z,55.40
2018-09-09T20:35:15.982Z,55.90
2018-09-09T20:37:44.637Z,55.40
2018-09-09T20:40:15.578Z,55.90
2018-09-09T20:42:44.154Z,55.40
2018-09-09T20:45:12.611Z,55.20
2018-09-09T20:47:41.397Z,55.10
2018-09-09T20:50:10.138Z,55.30
2018-09-09T20:52:38.605Z,55.60
2018-09-09T20:55:07.085Z,55.60
2018-09-09T20:57:35.597Z,55.80
2018-09-09T21:00:04.772Z,56.00
2018-09-09T21:02:33.407Z,56.10
2018-09-09T21:05:02.039Z,56.20
2018-09-09T21:07:30.621Z,56.30
2018-09-09T21:09:59.819Z,56.60
2018-09-09T21:12:28.675Z,56.80
2018-09-09T21:14:57.082Z,56.90
2018-09-09T21:17:25.778Z,57.50
2018-09-09T21:19:55.079Z,56.90
2018-09-09T21:22:23.936Z,57.10
2018-09-09T21:24:53.615Z,57.20
2018-09-09T21:27:22.667Z,57.30
2018-09-09T21:29:51.068Z,57.30
2018-09-09T21:32:19.516Z,57.30
2018-09-09T21:34:48.103Z,57.40
2018-09-09T21:37:16.475Z,57.40
2018-09-09T21:39:45.204Z,57.60
2018-09-09T21:42:13.563Z,57.70
2018-09-09T21:44:42.016Z,57.70
2018-09-09T21:47:10.407Z,57.90
2018-09-09T21:49:38.922Z,57.70
2018-09-09T21:52:07.302Z,57.70
2018-09-09T21:54:35.728Z,57.80
2018-09-09T21:57:05.057Z,57.90
2018-09-09T21:59:33.643Z,57.80
2018-09-09T22:02:02.340Z,57.80
2018-09-09T22:04:31.035Z,57.80
2018-09-09T22:06:59.995Z,58.00
2018-09-09T22:09:28.512Z,58.00
2018-09-09T22:11:57.502Z,58.10
2018-09-09T22:14:26.450Z,58.10
2018-09-09T22:16:55.311Z,58.10
2018-09-09T22:19:24.354Z,58.00
2018-09-09T22:21:52.848Z,58.20
2018-09-09T22:24:21.870Z,58.30
2018-09-09T22:26:50.338Z,57.90
2018-09-09T22:29:18.777Z,58.10
2018-09-09T22:31:47.166Z,58.20
2018-09-09T22:34:15.969Z,57.60
2018-09-09T22:36:44.366Z,57.90
2018-09-09T22:39:13.035Z,57.90
2018-09-09T22:41:41.664Z,58.10
2018-09-09T22:44:12.130Z,58.00
2018-09-09T22:46:41.251Z,58.10
2018-09-09T22:49:09.731Z,58.10
2018-09-09T22:51:38.548Z,58.10
2018-09-09T22:54:07.095Z,58.10
2018-09-09T22:56:35.444Z,58.30
2018-09-09T22:59:03.822Z,58.10
2018-09-09T23:01:32.745Z,58.10
2018-09-09T23:04:01.235Z,58.20
2018-09-09T23:06:29.821Z,58.00
2018-09-09T23:08:58.283Z,58.20
2018-09-09T23:11:26.774Z,58.00
2018-09-09T23:13:55.332Z,58.00
2018-09-09T23:16:23.751Z,57.90
2018-09-09T23:18:52.186Z,58.00
2018-09-09T23:21:20.547Z,58.00
2018-09-09T23:23:49.055Z,58.30
2018-09-09T23:26:18.450Z,58.00
2018-09-09T23:28:46.913Z,58.40
2018-09-09T23:31:15.414Z,58.40
2018-09-09T23:33:44.413Z,58.20
2018-09-09T23:37:32.038Z,58.10
2018-09-09T23:40:00.947Z,58.00
2018-09-09T23:42:29.380Z,58.10
2018-09-09T23:44:58.291Z,57.90
2018-09-09T23:47:26.884Z,58.00
2018-09-09T23:49:56.130Z,58.00
2018-09-09T23:52:24.601Z,58.10
2018-09-09T23:54:53.074Z,58.10
2018-09-09T23:57:21.545Z,58.10
2018-09-09T23:59:50.595Z,58.00
